Terminal Aerodrome Forecast
Issued by NWS Blacksburg, VA

Current Version | Previous Version | Graphics & Text | Print | Product List | Glossary On
Versions: 1 2 3 4 5 6 7 8 9 10 11 12 13 14 15 16 17 18 19 20 21 22 23 24 25 26 27 28 29 30 31 32 33 34 35 36
000
FTUS41 KRNK 262340
TAFBLF
TAF
KBLF 262340Z 2700/2724 29006KT P6SM BKN016 OVC022
     FM270500 30009KT 6SM -SHSN OVC008
     FM271200 31010KT 6SM -SHSN OVC015
     FM272000 31010KT P6SM BKN022=

USA.gov is the U.S. government's official web portal to all federal, state and local government web resources and services.